Time;durP1;ratioP1;P1;durP2;ratioP2;P2;SDS_P1;SDS_P2;PMS_P1;PMS_P2;Temp;Humidity;BMP_temperature;BMP_pressure;BME280_temperature;BME280_humidity;BME280_pressure;Samples;Min_cycle;Max_cycle;Signal;HPM_P1;HPM_P2
2022/01/22 00:00:14;;;;;;;;;26.50;22.75;;;;;7.83;100.00;103416.31;5051669;28;45281;-79
2022/01/22 00:02:40;;;;;;;;;22.25;19.00;;;;;7.82;100.00;103411.91;5046761;28;45278;-78
2022/01/22 00:05:08;;;;;;;;;27.75;22.50;;;;;7.83;100.00;103408.56;5048364;28;45502;-88
2022/01/22 00:07:34;;;;;;;;;28.25;23.75;;;;;7.83;100.00;103412.81;5045018;28;45335;-85
2022/01/22 00:10:04;;;;;;;;;27.50;25.00;;;;;7.80;100.00;103400.50;5045032;28;45691;-86
2022/01/22 00:15:03;;;;;;;;;21.50;21.25;;;;;7.82;100.00;103401.59;5042889;28;45366;-87
2022/01/22 00:17:28;;;;;;;;;23.50;20.50;;;;;7.85;100.00;103404.47;5040206;28;47013;-88
2022/01/22 00:19:54;;;;;;;;;21.50;19.25;;;;;7.87;100.00;103404.59;5042247;28;45338;-87
2022/01/22 00:22:24;;;;;;;;;28.25;23.00;;;;;7.86;100.00;103400.19;5040956;28;45095;-87
2022/01/22 00:24:54;;;;;;;;;21.75;20.75;;;;;7.85;100.00;103401.88;5039840;28;45542;-87
2022/01/22 00:27:20;;;;;;;;;23.00;20.25;;;;;7.87;100.00;103396.88;5021180;28;45550;-88
2022/01/22 00:29:46;;;;;;;;;26.00;21.00;;;;;7.88;100.00;103396.09;5038944;28;45480;-89
2022/01/22 00:32:11;;;;;;;;;23.00;21.50;;;;;7.89;100.00;103396.25;5032664;28;45486;-87
2022/01/22 00:34:37;;;;;;;;;21.00;18.50;;;;;7.89;100.00;103393.66;5029144;28;45638;-87
2022/01/22 00:37:03;;;;;;;;;18.00;17.75;;;;;7.90;100.00;103384.28;5039731;28;46425;-86
2022/01/22 00:39:29;;;;;;;;;19.50;17.25;;;;;7.91;100.00;103386.09;5022002;28;45447;-87
2022/01/22 00:41:55;;;;;;;;;19.25;17.50;;;;;7.93;100.00;103387.16;5038845;28;45389;-86
2022/01/22 00:44:21;;;;;;;;;9.75;8.25;;;;;7.91;100.00;103383.53;5036507;28;45589;-86
2022/01/22 00:46:47;;;;;;;;;17.75;16.75;;;;;7.91;100.00;103380.94;5027342;28;46752;-88
2022/01/22 00:49:12;;;;;;;;;17.00;15.25;;;;;7.95;100.00;103387.31;5038032;28;45355;-87
2022/01/22 00:51:38;;;;;;;;;21.25;15.75;;;;;7.95;100.00;103388.19;5038941;28;45464;-87
2022/01/22 00:54:04;;;;;;;;;16.50;16.25;;;;;7.94;100.00;103381.22;5038593;28;45296;-85
2022/01/22 00:56:29;;;;;;;;;23.00;20.25;;;;;7.92;100.00;103384.41;5020018;28;46231;-87
2022/01/22 00:58:55;;;;;;;;;21.75;18.25;;;;;7.91;100.00;103391.25;5038247;28;45212;-88
2022/01/22 01:01:21;;;;;;;;;21.00;15.75;;;;;7.91;100.00;103396.41;5038087;28;45513;-87
2022/01/22 01:03:46;;;;;;;;;18.50;15.75;;;;;7.90;100.00;103394.59;5018199;28;45566;-86
2022/01/22 01:06:12;;;;;;;;;15.75;15.25;;;;;7.89;100.00;103396.25;5020631;28;45982;-87
2022/01/22 01:08:38;;;;;;;;;19.75;16.50;;;;;7.88;100.00;103388.38;5037577;28;45706;-86
2022/01/22 01:11:05;;;;;;;;;19.50;17.00;;;;;7.89;100.00;103392.78;5037540;28;45374;-88
2022/01/22 01:13:36;;;;;;;;;18.75;16.00;;;;;7.90;100.00;103395.50;5038172;28;45493;-87
2022/01/22 01:16:15;;;;;;;;;15.25;14.25;;;;;7.92;100.00;103387.94;5037248;28;45496;-87
2022/01/22 01:32:34;;;;;;;;;17.75;15.25;;;;;7.80;100.00;103374.72;5037702;28;45415;-86
2022/01/22 01:35:04;;;;;;;;;22.00;17.50;;;;;7.81;100.00;103366.22;5023968;28;45808;-87
2022/01/22 01:37:30;;;;;;;;;20.00;15.75;;;;;7.83;100.00;103377.59;5037239;28;46655;-87
2022/01/22 01:40:00;;;;;;;;;21.50;17.25;;;;;7.86;100.00;103372.75;5037292;28;45278;-87
2022/01/22 01:42:36;;;;;;;;;19.75;15.75;;;;;7.84;100.00;103365.59;5038018;28;45366;-87
2022/01/22 01:45:04;;;;;;;;;21.75;19.75;;;;;7.83;100.00;103366.41;5038229;28;45485;-88
2022/01/22 01:47:30;;;;;;;;;17.00;16.75;;;;;7.84;100.00;103369.13;5038845;28;45288;-87
2022/01/22 01:49:56;;;;;;;;;19.50;18.75;;;;;7.85;100.00;103363.19;5037186;28;45273;-87
2022/01/22 01:52:31;;;;;;;;;21.00;17.25;;;;;7.84;100.00;103381.09;5037299;28;45379;-88
2022/01/22 01:55:04;;;;;;;;;17.75;17.75;;;;;7.86;100.00;103375.34;5018551;28;45530;-88
2022/01/22 01:57:38;;;;;;;;;19.50;17.25;;;;;7.88;100.00;103371.22;5019334;28;47178;-87
2022/01/22 02:00:15;;;;;;;;;20.25;18.75;;;;;7.89;100.00;103385.94;5036646;28;45454;-87
2022/01/22 02:02:42;;;;;;;;;20.75;19.25;;;;;7.89;100.00;103379.88;5037030;28;45357;-86
2022/01/22 02:05:10;;;;;;;;;22.25;19.75;;;;;7.90;100.00;103380.00;5022438;28;45483;-88
2022/01/22 02:07:38;;;;;;;;;19.50;16.50;;;;;7.92;100.00;103376.69;5020851;28;45496;-87
2022/01/22 02:10:09;;;;;;;;;19.00;16.75;;;;;7.91;100.00;103375.78;5036985;28;45842;-87
2022/01/22 02:12:59;;;;;;;;;17.75;17.25;;;;;7.88;100.00;103372.91;5020220;28;45907;-87
2022/01/22 02:23:42;;;;;;;;;18.25;14.50;;;;;7.82;100.00;103380.94;5036806;28;45513;-88
2022/01/22 02:26:10;;;;;;;;;14.00;13.25;;;;;7.83;100.00;103375.03;5035671;28;45515;-87
2022/01/22 02:28:36;;;;;;;;;16.00;14.00;;;;;7.84;100.00;103365.59;5036965;28;46167;-87
2022/01/22 02:31:19;;;;;;;;;17.00;16.50;;;;;7.85;100.00;103362.28;5035619;28;45941;-85
2022/01/22 02:36:37;;;;;;;;;20.75;16.00;;;;;7.86;100.00;103372.75;5035932;28;45506;-82
2022/01/22 02:39:21;;;;;;;;;16.50;15.50;;;;;7.86;100.00;103370.19;5025222;28;45295;-87
2022/01/22 02:41:51;;;;;;;;;18.50;18.00;;;;;7.87;100.00;103372.00;5025496;28;45496;-87
2022/01/22 02:44:35;;;;;;;;;19.75;17.00;;;;;7.90;100.00;103373.97;5036035;28;45403;-88
2022/01/22 02:47:03;;;;;;;;;15.75;14.50;;;;;7.92;100.00;103364.72;5016813;28;45473;-86
2022/01/22 02:49:29;;;;;;;;;16.25;13.00;;;;;7.94;100.00;103365.75;5035764;28;46504;-79
2022/01/22 02:51:59;;;;;;;;;14.00;11.75;;;;;7.95;100.00;103352.09;5017322;28;45547;-83
2022/01/22 02:54:25;;;;;;;;;18.25;17.75;;;;;7.95;100.00;103357.25;5036611;28;45943;-90
2022/01/22 02:56:50;;;;;;;;;16.25;15.50;;;;;7.96;100.00;103346.16;5027370;28;45468;-88
2022/01/22 02:59:21;;;;;;;;;15.00;14.50;;;;;7.99;100.00;103350.72;5024388;28;45552;-90
2022/01/22 03:01:47;;;;;;;;;17.50;16.75;;;;;7.99;100.00;103341.31;5027528;28;45849;-88
2022/01/22 03:04:12;;;;;;;;;15.25;14.50;;;;;8.00;100.00;103350.88;5038275;28;45515;-87
2022/01/22 03:06:38;;;;;;;;;17.75;16.50;;;;;7.99;100.00;103351.63;5038286;28;45525;-89
2022/01/22 03:09:07;;;;;;;;;14.75;13.25;;;;;7.99;100.00;103345.56;5019017;28;47680;-88
2022/01/22 03:11:41;;;;;;;;;15.75;15.75;;;;;7.98;100.00;103346.34;5032156;28;45809;-88
2022/01/22 03:19:33;;;;;;;;;13.00;12.50;;;;;7.91;100.00;103350.00;5029065;28;45340;-90
2022/01/22 03:22:14;;;;;;;;;16.50;16.50;;;;;7.89;100.00;103354.09;5031677;28;45520;-89
2022/01/22 03:27:27;;;;;;;;;18.25;15.75;;;;;7.82;100.00;103355.16;5034774;28;46505;-90
2022/01/22 03:29:53;;;;;;;;;19.50;16.00;;;;;7.80;100.00;103356.66;5040863;28;46453;-89
2022/01/22 03:32:19;;;;;;;;;15.00;13.00;;;;;7.82;100.00;103354.25;5042766;28;45535;-87
2022/01/22 03:34:57;;;;;;;;;16.50;15.25;;;;;7.82;100.00;103346.53;5042196;28;45466;-91
2022/01/22 03:37:25;;;;;;;;;14.50;13.75;;;;;7.78;100.00;103350.44;5043224;28;45473;-89
2022/01/22 03:39:51;;;;;;;;;17.75;15.25;;;;;7.75;100.00;103358.81;5048756;28;45543;-89
2022/01/22 03:42:17;;;;;;;;;16.00;14.00;;;;;7.77;100.00;103353.81;5041765;28;45852;-89
2022/01/22 03:44:43;;;;;;;;;21.00;18.75;;;;;7.77;100.00;103355.47;5039542;28;45339;-89
2022/01/22 03:47:09;;;;;;;;;21.00;19.00;;;;;7.79;100.00;103360.00;5041573;28;45486;-87
2022/01/22 03:49:34;;;;;;;;;18.25;10.00;;;;;7.81;100.00;103366.22;5040036;28;46891;-88
2022/01/22 03:52:00;;;;;;;;;16.00;13.50;;;;;7.82;100.00;103362.88;5041028;28;45325;-87
2022/01/22 03:54:25;;;;;;;;;15.25;14.25;;;;;7.83;100.00;103359.56;5041505;28;45491;-89
2022/01/22 03:56:52;;;;;;;;;19.00;15.00;;;;;7.83;100.00;103354.41;5039549;28;45514;-82
2022/01/22 03:59:18;;;;;;;;;15.75;14.25;;;;;7.83;100.00;103356.97;5039479;28;45319;-88
2022/01/22 04:04:17;;;;;;;;;17.25;13.25;;;;;7.78;100.00;103360.75;5050054;28;45296;-84
2022/01/22 04:09:30;;;;;;;;;17.50;14.50;;;;;7.79;100.00;103353.94;5038309;28;45367;-88
2022/01/22 04:11:58;;;;;;;;;14.00;13.75;;;;;7.80;100.00;103355.78;5041532;28;45201;-89
2022/01/22 04:14:27;;;;;;;;;14.50;13.00;;;;;7.80;100.00;103353.19;5042007;28;45271;-91
2022/01/22 04:24:55;;;;;;;;;10.00;9.75;;;;;7.93;100.00;103343.31;5039237;28;45403;-89
2022/01/22 04:27:26;;;;;;;;;15.00;14.00;;;;;7.94;100.00;103345.09;5041061;28;45568;-90
2022/01/22 04:29:57;;;;;;;;;15.75;12.50;;;;;7.99;100.00;103348.16;5039881;28;45426;-92
2022/01/22 04:32:24;;;;;;;;;12.00;12.00;;;;;8.00;100.00;103350.88;5042320;28;45748;-90
2022/01/22 04:34:50;;;;;;;;;20.00;16.00;;;;;8.02;100.00;103351.94;5043199;28;45268;-90
2022/01/22 04:37:18;;;;;;;;;12.00;10.50;;;;;8.05;100.00;103349.63;5040322;28;45593;-87
2022/01/22 04:39:45;;;;;;;;;18.25;14.00;;;;;8.08;100.00;103353.28;5039467;28;45322;-90
2022/01/22 04:42:11;;;;;;;;;12.00;12.00;;;;;8.10;100.00;103349.16;5022313;28;45514;-90
2022/01/22 04:44:45;;;;;;;;;16.75;11.25;;;;;8.10;100.00;103350.06;5021383;28;45400;-87
2022/01/22 04:52:40;;;;;;;;;16.75;15.00;;;;;8.13;100.00;103357.22;5046503;28;46000;-91
2022/01/22 04:55:08;;;;;;;;;12.25;10.00;;;;;8.12;100.00;103348.53;5042257;28;45409;-88
2022/01/22 04:57:38;;;;;;;;;15.00;12.25;;;;;8.09;100.00;103344.78;5038996;28;45280;-83
2022/01/22 05:00:10;;;;;;;;;14.50;14.50;;;;;8.10;100.00;103347.47;5038739;28;45675;-88
2022/01/22 05:02:36;;;;;;;;;12.25;11.75;;;;;8.12;100.00;103356.28;5021874;28;45337;-89
2022/01/22 05:05:03;;;;;;;;;17.00;14.50;;;;;8.12;100.00;103356.28;5041637;28;45359;-90
2022/01/22 05:07:28;;;;;;;;;13.25;11.25;;;;;8.12;100.00;103351.13;5040974;28;45527;-89
2022/01/22 05:09:54;;;;;;;;;15.25;13.50;;;;;8.12;100.00;103345.06;5040560;28;45661;-86
2022/01/22 05:12:19;;;;;;;;;18.00;15.00;;;;;8.13;100.00;103346.91;5039073;28;45421;-90
2022/01/22 05:14:45;;;;;;;;;18.00;15.50;;;;;8.14;100.00;103348.72;5045526;28;45280;-83
2022/01/22 05:17:11;;;;;;;;;15.50;15.25;;;;;8.13;100.00;103346.91;5040025;28;45434;-88
2022/01/22 05:23:00;;;;;;;;;19.50;17.50;;;;;8.11;100.00;103348.41;5038780;28;45817;-89
2022/01/22 05:25:00;;;;;;;;;16.00;15.25;;;;;8.10;100.00;103349.16;5015024;28;45809;-90
2022/01/22 05:27:46;;;;;;;;;17.50;15.25;;;;;8.10;100.00;103347.47;5019521;28;45344;-91
2022/01/22 05:33:03;;;;;;;;;18.50;15.25;;;;;8.15;100.00;103355.69;5035580;28;45808;-89
2022/01/22 05:38:20;;;;;;;;;15.00;15.00;;;;;8.15;100.00;103366.91;5027897;28;45323;-88
2022/01/22 05:40:46;;;;;;;;;21.50;17.75;;;;;8.17;100.00;103361.88;5043023;28;46370;-88
2022/01/22 05:43:12;;;;;;;;;14.75;14.75;;;;;8.19;100.00;103357.78;5045339;28;45272;-86
2022/01/22 05:45:37;;;;;;;;;24.25;18.75;;;;;8.19;100.00;103360.38;5042067;28;45477;-81
2022/01/22 05:48:03;;;;;;;;;18.50;16.25;;;;;8.19;100.00;103358.72;5041146;28;45173;-89
2022/01/22 05:50:36;;;;;;;;;19.00;15.75;;;;;8.20;100.00;103359.59;5040122;28;45323;-90
2022/01/22 05:53:12;;;;;;;;;21.25;19.25;;;;;8.19;100.00;103358.72;5040028;28;45486;-90
2022/01/22 06:00:49;;;;;;;;;22.75;18.75;;;;;8.24;100.00;103358.22;5044749;28;45353;-90
2022/01/22 06:03:15;;;;;;;;;23.75;18.00;;;;;8.23;100.00;103367.66;5049520;28;45095;-90
2022/01/22 06:05:40;;;;;;;;;23.25;19.25;;;;;8.24;100.00;103366.91;5051443;28;45449;-90
2022/01/22 06:08:06;;;;;;;;;20.75;20.75;;;;;8.23;100.00;103369.31;5045557;28;45602;-90
2022/01/22 06:10:33;;;;;;;;;22.50;19.75;;;;;8.23;100.00;103369.31;5044436;28;45202;-89
2022/01/22 06:13:15;;;;;;;;;23.50;18.75;;;;;8.23;100.00;103375.41;5042132;28;45815;-91
2022/01/22 06:15:40;;;;;;;;;33.00;25.00;;;;;8.25;100.00;103386.78;5024803;28;45427;-92
2022/01/22 06:18:06;;;;;;;;;27.50;24.75;;;;;8.26;100.00;103375.66;5041635;28;45510;-91
2022/01/22 06:20:32;;;;;;;;;29.25;24.25;;;;;8.27;100.00;103376.59;5044054;28;45323;-93
2022/01/22 06:22:59;;;;;;;;;22.00;18.25;;;;;8.27;100.00;103376.59;5048255;28;45343;-87
2022/01/22 06:25:25;;;;;;;;;23.50;21.00;;;;;8.23;100.00;103370.22;5033557;28;44769;-93
2022/01/22 06:27:50;;;;;;;;;22.50;19.50;;;;;8.24;100.00;103376.28;5047385;28;45413;-92
2022/01/22 06:30:16;;;;;;;;;24.00;21.00;;;;;8.24;100.00;103377.22;5048298;28;46365;-93
2022/01/22 06:32:41;;;;;;;;;23.00;20.75;;;;;8.24;100.00;103365.97;5052434;28;45347;-91
2022/01/22 06:35:08;;;;;;;;;23.75;22.00;;;;;8.26;100.00;103375.66;5061341;28;44666;-88
2022/01/22 06:37:33;;;;;;;;;24.75;22.75;;;;;8.29;100.00;103373.38;5037397;28;45289;-92
2022/01/22 06:42:29;;;;;;;;;28.75;23.25;;;;;8.31;100.00;103378.72;5046676;28;45282;-92
2022/01/22 06:44:56;;;;;;;;;22.25;20.00;;;;;8.32;100.00;103372.75;5050058;28;45362;-94
2022/01/22 06:47:21;;;;;;;;;27.75;22.75;;;;;8.34;100.00;103382.50;5054328;28;45315;-90
2022/01/22 06:49:47;;;;;;;;;28.50;23.25;;;;;8.35;100.00;103380.81;5041811;28;44886;-92
2022/01/22 06:52:16;;;;;;;;;18.75;15.75;;;;;8.34;100.00;103381.56;5058066;28;44643;-88
2022/01/22 06:54:43;;;;;;;;;26.50;23.75;;;;;8.32;100.00;103373.69;5057188;28;45189;-82
2022/01/22 06:57:09;;;;;;;;;28.25;23.75;;;;;8.35;100.00;103384.31;5051422;28;45592;-83
2022/01/22 06:59:36;;;;;;;;;23.50;21.25;;;;;8.36;100.00;103383.56;5048765;28;45404;-84
2022/01/22 07:02:02;;;;;;;;;24.75;21.75;;;;;8.33;100.00;103380.69;5039352;28;45449;-87
2022/01/22 07:04:29;;;;;;;;;28.50;26.50;;;;;8.35;100.00;103379.16;5025469;28;45517;-85
2022/01/22 07:06:55;;;;;;;;;26.75;23.50;;;;;8.38;100.00;103378.53;5043618;28;45566;-91
2022/01/22 07:09:22;;;;;;;;;22.25;20.50;;;;;8.36;100.00;103378.41;5044941;28;47078;-84
2022/01/22 07:11:48;;;;;;;;;23.50;22.75;;;;;8.38;100.00;103388.84;5040950;28;45255;-86
2022/01/22 07:14:14;;;;;;;;;23.25;22.50;;;;;8.38;100.00;103383.69;5022730;28;45308;-83
2022/01/22 07:16:39;;;;;;;;;25.00;23.25;;;;;8.37;100.00;103380.19;5040768;28;45324;-80
2022/01/22 07:19:05;;;;;;;;;21.75;21.75;;;;;8.39;100.00;103384.59;5039341;28;46089;-76
2022/01/22 07:21:31;;;;;;;;;29.00;25.50;;;;;8.37;100.00;103393.09;5041844;28;45335;-80
2022/01/22 07:26:30;;;;;;;;;27.50;23.00;;;;;8.37;100.00;103395.66;5046366;28;45306;-80
2022/01/22 07:28:57;;;;;;;;;28.00;25.50;;;;;8.35;100.00;103386.91;5045119;28;45370;-89
2022/01/22 07:31:26;;;;;;;;;27.25;21.25;;;;;8.34;100.00;103392.81;5043363;28;45453;-88
2022/01/22 07:33:52;;;;;;;;;31.00;25.25;;;;;8.32;100.00;103388.25;5023947;28;45438;-87
2022/01/22 07:36:18;;;;;;;;;33.00;26.25;;;;;8.32;100.00;103389.19;5022290;28;45412;-86
2022/01/22 07:38:44;;;;;;;;;29.00;25.50;;;;;8.31;100.00;103397.69;5044753;28;45570;-92
2022/01/22 07:41:11;;;;;;;;;28.50;24.75;;;;;8.32;100.00;103399.50;5027784;28;45416;-91
2022/01/22 07:43:37;;;;;;;;;33.00;30.50;;;;;8.32;100.00;103402.09;5042430;28;45486;-92
2022/01/22 07:46:07;;;;;;;;;33.50;28.00;;;;;8.34;100.00;103409.97;5042389;28;45249;-91
2022/01/22 07:48:32;;;;;;;;;32.00;26.50;;;;;8.33;100.00;103402.97;5043390;28;45358;-90
2022/01/22 07:50:58;;;;;;;;;27.00;24.50;;;;;8.34;100.00;103403.16;5042118;28;47093;-90
2022/01/22 07:53:24;;;;;;;;;24.50;21.00;;;;;8.36;100.00;103406.78;5047276;28;45229;-90
2022/01/22 07:55:51;;;;;;;;;26.50;22.75;;;;;8.37;100.00;103405.09;5049805;28;44935;-88
2022/01/22 07:58:17;;;;;;;;;30.50;25.00;;;;;8.36;100.00;103403.28;5045132;28;45308;-86
2022/01/22 08:00:43;;;;;;;;;26.25;21.25;;;;;8.39;100.00;103410.41;5043068;28;45553;-89
2022/01/22 08:03:09;;;;;;;;;35.00;24.50;;;;;8.39;100.00;103403.59;5045089;28;45221;-87
2022/01/22 08:05:36;;;;;;;;;29.00;24.25;;;;;8.40;100.00;103405.41;5048430;28;45537;-89
2022/01/22 08:08:03;;;;;;;;;31.00;26.00;;;;;8.42;100.00;103415.88;5040045;28;45399;-88
2022/01/22 08:10:29;;;;;;;;;30.50;25.00;;;;;8.42;100.00;103410.69;5039872;28;45883;-87
2022/01/22 08:12:55;;;;;;;;;25.50;22.50;;;;;8.40;100.00;103409.66;5038853;28;45421;-86
2022/01/22 08:15:21;;;;;;;;;30.50;26.75;;;;;8.41;100.00;103419.22;5019990;28;45512;-81
2022/01/22 08:17:48;;;;;;;;;25.25;21.75;;;;;8.41;100.00;103414.03;5021021;28;46273;-81
2022/01/22 08:20:16;;;;;;;;;30.25;27.00;;;;;8.40;100.00;103418.31;5035608;28;45315;-77
2022/01/22 08:22:42;;;;;;;;;29.00;24.75;;;;;8.41;100.00;103422.72;5038781;28;45363;-80
2022/01/22 08:25:09;;;;;;;;;32.75;27.00;;;;;8.42;100.00;103419.38;5037698;28;45577;-84
2022/01/22 08:27:42;;;;;;;;;28.00;24.50;;;;;8.43;100.00;103425.44;5037770;28;46014;-80
2022/01/22 08:30:11;;;;;;;;;34.25;27.75;;;;;8.45;100.00;103427.41;5037373;28;46029;-78
2022/01/22 08:37:55;;;;;;;;;29.75;26.75;;;;;8.48;100.00;103435.47;5038094;28;45514;-80
2022/01/22 08:40:21;;;;;;;;;33.50;30.75;;;;;8.49;100.00;103433.78;5036111;28;45920;-80
2022/01/22 08:42:47;;;;;;;;;28.00;25.75;;;;;8.49;100.00;103438.94;5036586;28;45596;-80
2022/01/22 08:45:12;;;;;;;;;32.00;28.00;;;;;8.54;100.00;103439.38;5031153;28;45592;-78
2022/01/22 08:47:39;;;;;;;;;33.25;29.00;;;;;8.52;100.00;103444.41;5038758;28;46069;-80
2022/01/22 08:50:05;;;;;;;;;28.75;26.50;;;;;8.50;100.00;103438.19;5040026;28;45311;-81
2022/01/22 08:52:35;;;;;;;;;30.75;29.00;;;;;8.48;100.00;103442.28;5035817;28;45265;-81
2022/01/22 08:55:01;;;;;;;;;28.75;26.00;;;;;8.50;100.00;103454.63;5040850;28;45549;-81
2022/01/22 08:57:27;;;;;;;;;31.50;26.75;;;;;8.49;100.00;103451.84;5040092;28;46251;-87
2022/01/22 08:59:52;;;;;;;;;29.75;27.25;;;;;8.51;100.00;103450.34;5041059;28;45481;-84
2022/01/22 09:02:18;;;;;;;;;27.50;24.50;;;;;8.51;100.00;103460.66;5046571;28;45273;-86
2022/01/22 09:04:45;;;;;;;;;32.75;26.25;;;;;8.50;100.00;103469.19;5038517;28;45311;-87
2022/01/22 09:07:11;;;;;;;;;28.50;27.50;;;;;8.54;100.00;103468.72;5041575;28;45621;-81
2022/01/22 09:09:37;;;;;;;;;32.50;27.50;;;;;8.56;100.00;103463.69;5018967;28;45479;-82
2022/01/22 09:12:05;;;;;;;;;32.25;26.25;;;;;8.59;100.00;103474.31;5038115;28;45278;-82
2022/01/22 09:14:31;;;;;;;;;27.75;26.25;;;;;8.59;100.00;103461.41;5037168;28;46956;-80
2022/01/22 09:16:59;;;;;;;;;28.50;25.00;;;;;8.61;100.00;103473.69;5030297;28;45978;-80
2022/01/22 09:19:32;;;;;;;;;25.75;25.75;;;;;8.64;100.00;103465.31;5031574;28;45453;-81
2022/01/22 09:22:01;;;;;;;;;28.25;24.50;;;;;8.66;100.00;103471.56;5020421;28;45491;-79
2022/01/22 09:24:27;;;;;;;;;27.75;23.75;;;;;8.65;100.00;103470.66;5034672;28;45560;-83
2022/01/22 09:26:52;;;;;;;;;31.50;24.75;;;;;8.65;100.00;103469.72;5037930;28;45308;-82
2022/01/22 09:29:23;;;;;;;;;24.50;23.00;;;;;8.66;100.00;103467.31;5025855;28;45545;-79
2022/01/22 09:31:49;;;;;;;;;33.25;28.50;;;;;8.67;100.00;103479.47;5036928;28;45926;-81
2022/01/22 09:34:15;;;;;;;;;31.75;29.50;;;;;8.68;99.94;103488.13;5035905;28;45660;-84
2022/01/22 09:36:40;;;;;;;;;29.50;28.00;;;;;8.69;99.67;103489.03;5036937;28;46620;-85
2022/01/22 09:39:06;;;;;;;;;30.50;27.50;;;;;8.67;99.02;103479.47;5037591;28;45457;-85
2022/01/22 09:41:32;;;;;;;;;29.75;26.00;;;;;8.68;98.90;103482.94;5039630;28;45297;-81
2022/01/22 09:43:58;;;;;;;;;36.25;26.00;;;;;8.70;98.84;103488.25;5037081;28;45588;-79
2022/01/22 09:46:27;;;;;;;;;30.25;26.50;;;;;8.72;98.59;103491.91;5037085;28;45352;-80
2022/01/22 09:48:54;;;;;;;;;30.25;26.00;;;;;8.74;99.04;103490.38;5036694;28;46010;-81
2022/01/22 09:51:20;;;;;;;;;32.00;25.50;;;;;8.74;98.93;103487.78;5019224;28;45409;-81
2022/01/22 09:53:47;;;;;;;;;27.50;25.50;;;;;8.76;98.91;103487.16;5036939;28;45478;-78
2022/01/22 09:56:17;;;;;;;;;32.00;26.50;;;;;8.79;98.39;103484.88;5016762;28;45435;-81
2022/01/22 09:58:42;;;;;;;;;38.25;28.75;;;;;8.83;99.71;103491.25;5026848;28;45525;-81
2022/01/22 10:01:23;;;;;;;;;33.00;28.50;;;;;8.87;98.54;103489.84;5028724;28;45502;-77
2022/01/22 10:03:50;;;;;;;;;34.50;32.50;;;;;8.85;98.13;103489.72;5024016;28;45604;-80
2022/01/22 10:06:22;;;;;;;;;26.50;26.50;;;;;8.83;97.85;103492.19;5029418;28;45437;-80
2022/01/22 10:08:51;;;;;;;;;28.75;26.00;;;;;8.83;98.25;103493.84;5036080;28;45491;-81
2022/01/22 10:11:17;;;;;;;;;32.25;23.50;;;;;8.83;97.88;103497.34;5015046;28;45291;-80
2022/01/22 10:13:54;;;;;;;;;28.50;25.75;;;;;8.80;98.38;103497.03;5035441;28;45439;-79
2022/01/22 10:16:21;;;;;;;;;30.25;27.25;;;;;8.81;99.04;103495.34;5036002;28;46438;-80
2022/01/22 10:19:20;;;;;;;;;32.50;25.75;;;;;8.84;99.57;103498.25;5024913;28;45773;-80
2022/01/22 10:21:49;;;;;;;;;50.50;36.25;;;;;8.86;99.58;103493.19;5036237;28;45489;-81
2022/01/22 10:24:45;;;;;;;;;45.50;38.00;;;;;8.85;98.06;103501.75;5036321;28;45221;-80
2022/01/22 10:27:33;;;;;;;;;37.75;31.25;;;;;8.81;98.63;103496.28;5035711;28;46497;-78
2022/01/22 10:30:13;;;;;;;;;32.25;28.00;;;;;8.81;98.80;103503.09;5026686;28;45391;-84
2022/01/22 10:32:57;;;;;;;;;33.25;28.75;;;;;8.83;98.77;103512.84;5027662;28;45468;-80
2022/01/22 10:35:26;;;;;;;;;27.75;27.00;;;;;8.83;96.91;103504.16;5011841;28;45306;-80
2022/01/22 10:37:59;;;;;;;;;34.50;30.50;;;;;8.81;98.00;103496.28;5017155;28;45484;-78
2022/01/22 10:40:31;;;;;;;;;31.00;25.25;;;;;8.87;97.69;103503.72;5026498;28;45891;-79
2022/01/22 10:48:53;;;;;;;;;36.00;31.50;;;;;8.97;97.28;103502.88;5028510;28;45924;-85
2022/01/22 10:51:20;;;;;;;;;33.25;26.50;;;;;9.00;97.06;103502.28;5024742;28;45394;-81
2022/01/22 10:53:51;;;;;;;;;31.50;26.50;;;;;9.01;96.56;103505.00;5029173;28;45500;-80
2022/01/22 10:56:22;;;;;;;;;34.75;31.00;;;;;9.00;96.57;103485.09;5030214;28;45486;-84
2022/01/22 10:59:01;;;;;;;;;40.25;34.00;;;;;9.00;96.22;103479.03;5029653;28;46082;-84
2022/01/22 11:01:54;;;;;;;;;32.50;28.00;;;;;9.06;96.50;103492.53;5013653;28;45386;-80
2022/01/22 11:04:28;;;;;;;;;54.00;43.25;;;;;9.12;97.38;103487.94;5030447;28;45212;-83
2022/01/22 11:06:58;;;;;;;;;35.00;30.75;;;;;9.18;95.87;103492.78;5031987;28;45672;-86
2022/01/22 11:09:26;;;;;;;;;40.25;35.25;;;;;9.19;95.11;103485.16;5045530;28;46005;-87
2022/01/22 11:11:53;;;;;;;;;35.00;30.75;;;;;9.18;95.92;103485.94;5018742;28;45411;-80
2022/01/22 11:14:19;;;;;;;;;38.25;31.50;;;;;9.24;95.64;103483.00;5021589;28;45582;-82
2022/01/22 11:16:48;;;;;;;;;31.75;27.00;;;;;9.27;95.15;103479.03;5035813;28;45327;-82
2022/01/22 11:19:23;;;;;;;;;28.25;24.75;;;;;9.23;94.45;103474.31;5028177;28;46294;-78
2022/01/22 11:21:53;;;;;;;;;31.00;27.25;;;;;9.27;93.74;103475.53;5015755;28;45344;-76
2022/01/22 11:24:24;;;;;;;;;30.00;25.00;;;;;9.26;93.77;103471.13;5016018;28;45365;-77
2022/01/22 11:26:53;;;;;;;;;30.00;28.00;;;;;9.25;93.70;103470.22;5025275;28;45681;-79
2022/01/22 11:29:24;;;;;;;;;43.50;35.25;;;;;9.25;93.60;103471.91;5010536;28;47979;-84
2022/01/22 11:31:53;;;;;;;;;30.50;27.00;;;;;9.28;93.18;103475.69;5008537;28;45544;-79
2022/01/22 11:34:23;;;;;;;;;27.75;23.00;;;;;9.29;93.65;103468.81;5019960;28;45351;-77
2022/01/22 11:37:08;;;;;;;;;35.50;28.25;;;;;9.31;93.52;103463.81;5035377;28;45467;-79
2022/01/22 11:39:33;;;;;;;;;34.25;31.75;;;;;9.29;92.62;103459.41;5021558;28;46117;-82
2022/01/22 11:41:59;;;;;;;;;37.50;33.00;;;;;9.29;93.01;103464.56;5027834;28;45522;-83
2022/01/22 11:44:40;;;;;;;;;31.75;26.00;;;;;9.34;93.71;103464.09;5024611;28;45421;-80
2022/01/22 11:47:07;;;;;;;;;35.25;31.25;;;;;9.33;92.75;103463.19;5041173;28;45335;-80
2022/01/22 11:49:34;;;;;;;;;37.00;26.50;;;;;9.35;93.18;103456.47;5031677;28;47995;-82
2022/01/22 11:52:12;;;;;;;;;39.00;33.50;;;;;9.36;93.09;103454.78;5011127;28;45458;-83
2022/01/22 11:55:07;;;;;;;;;30.00;25.75;;;;;9.36;93.28;103457.38;5038269;28;45495;-84
2022/01/22 11:57:33;;;;;;;;;36.75;27.00;;;;;9.36;93.54;103458.31;5016989;28;45647;-83
2022/01/22 12:00:20;;;;;;;;;26.75;23.50;;;;;9.37;93.43;103457.53;5022983;28;45878;-81
2022/01/22 12:03:08;;;;;;;;;27.75;25.25;;;;;9.35;92.93;103451.31;5020134;28;45888;-81
2022/01/22 12:06:03;;;;;;;;;26.25;21.25;;;;;9.36;93.83;103453.13;5023850;28;45433;-79
2022/01/22 12:08:29;;;;;;;;;28.00;26.25;;;;;9.37;93.13;103446.25;5043398;28;45470;-79
2022/01/22 12:16:40;;;;;;;;;36.25;30.50;;;;;9.44;93.84;103443.50;5014162;28;45375;-78
2022/01/22 12:19:37;;;;;;;;;33.75;30.75;;;;;9.44;92.74;103446.97;5033446;28;45577;-83
2022/01/22 12:22:34;;;;;;;;;29.50;27.75;;;;;9.47;93.34;103441.16;5038652;28;45487;-78
2022/01/22 12:25:03;;;;;;;;;38.25;32.25;;;;;9.44;92.31;103441.81;5020386;28;45348;-79
2022/01/22 12:27:45;;;;;;;;;29.25;25.00;;;;;9.46;93.56;103429.00;5020445;28;45329;-80
2022/01/22 12:30:12;;;;;;;;;29.00;28.50;;;;;9.49;93.28;103434.47;5038135;28;45439;-79
2022/01/22 12:32:48;;;;;;;;;29.00;25.00;;;;;9.51;92.63;103435.53;5019998;28;46826;-77
2022/01/22 12:35:31;;;;;;;;;26.50;25.25;;;;;9.54;92.25;103429.72;5039004;28;45874;-80
2022/01/22 12:38:32;;;;;;;;;31.25;29.75;;;;;9.55;91.27;103422.13;5037426;28;45418;-79
2022/01/22 12:41:34;;;;;;;;;33.00;26.25;;;;;9.53;91.33;103428.81;5029450;28;45480;-76
2022/01/22 12:44:07;;;;;;;;;26.25;23.00;;;;;9.52;91.56;103414.06;5037117;28;46109;-92
2022/01/22 12:46:35;;;;;;;;;30.75;25.25;;;;;9.51;91.46;103414.84;5038834;28;45334;-85
2022/01/22 12:49:07;;;;;;;;;32.50;26.75;;;;;9.44;91.94;103400.44;5041713;28;45419;-81
2022/01/22 12:51:35;;;;;;;;;27.50;25.75;;;;;9.46;91.50;103408.31;5028423;28;45256;-81